This is the latest recevied weather packets stored in our database for station/object WW1TA. If no packets are shown the sender has not sent any weather packets the latest 10 day(s).
| Time | Temp. | Humidity | Pressure | Rain* | Wind** | Luminosity | Snow |
|---|---|---|---|---|---|---|---|
| 1777312739 | 15.56° C | 73% | 1024.5 hPa | 0 mm | - | 251 W/m² | - |
| 1777312436 | 16.11° C | 70% | 1024.2 hPa | 0 mm | - | 272 W/m² | - |
| 1777311521 | 15.56° C | 74% | 1024.5 hPa | 0 mm | - | 247 W/m² | - |
| 1777311218 | 15.56° C | 73% | 1024.6 hPa | 0 mm | - | 231 W/m² | - |
| 1777310916 | 15.56° C | 75% | 1024.6 hPa | 0 mm | - | 247 W/m² | - |
| 1777310306 | 15° C | 75% | 1024.6 hPa | 0 mm | - | 290 W/m² | - |
| 1777310003 | 14.44° C | 77% | 1024.7 hPa | 0 mm | - | 224 W/m² | - |
| 1777309096 | 15° C | 75% | 1024.6 hPa | 0 mm | - | 241 W/m² | - |
| 1777307879 | 14.44° C | 79% | 1024.9 hPa | 0 mm | - | 217 W/m² | - |
| 1777306971 | 13.89° C | 80% | 1024.8 hPa | 0 mm | - | 171 W/m² | - |
| 1777304230 | 13.89° C | 80% | 1024.6 hPa | 0 mm | - | 176 W/m² | - |
| 1777303927 | 13.89° C | 78% | 1024.6 hPa | 0 mm | - | 185 W/m² | - |
| 1777303624 | 14.44° C | 77% | 1024.7 hPa | 0 mm | - | 192 W/m² | - |
| 1777302414 | 13.33° C | 80% | 1024.6 hPa | 0 mm | - | 193 W/m² | - |
| 1777300598 | 13.33° C | 80% | 1024.5 hPa | 0 mm | - | 152 W/m² | - |
| 1777300295 | 13.33° C | 80% | 1024.6 hPa | 0 mm | - | 148 W/m² | - |
| 1777299992 | 12.78° C | 81% | 1024.4 hPa | 0 mm | - | 158 W/m² | - |
| 1777299688 | 12.78° C | 81% | 1024.3 hPa | 0 mm | - | 166 W/m² | - |
| 1777299386 | 13.33° C | 81% | 1024.2 hPa | 0 mm | - | 153 W/m² | - |
| 1777299084 | 12.78° C | 81% | 1024.2 hPa | 0 mm | - | 135 W/m² | - |
| 1777298780 | 12.78° C | 82% | 1024.2 hPa | 0 mm | - | 147 W/m² | - |
| 1777298477 | 12.78° C | 82% | 1024.1 hPa | 0 mm | - | 138 W/m² | - |
| 1777298173 | 12.78° C | 83% | 1024.1 hPa | 0 mm | - | 104 W/m² | - |
| 1777297263 | 12.22° C | 82% | 1024.1 hPa | 0 mm | - | 109 W/m² | - |
| 1777296960 | 12.22° C | 82% | 1024.2 hPa | 0 mm | - | 98 W/m² | - |
* Rain latest hour (hover to see other rain measurements)
** Current wind speed in m/s (hover to see current wind gust speed)